Time;durP1;ratioP1;P1;durP2;ratioP2;P2;SDS_P1;SDS_P2;PMS_P1;PMS_P2;Temp;Humidity;BMP_temperature;BMP_pressure;BME280_temperature;BME280_humidity;BME280_pressure;Samples;Min_cycle;Max_cycle;Signal;HPM_P1;HPM_P2
2022/01/04 00:01:35;;;;;;;7.82;2.53;;;8.40;99.90;;;;;;5116878;28;20095;-66
2022/01/04 00:04:01;;;;;;;10.85;3.03;;;8.70;99.90;;;;;;5134512;27;20046;-66
2022/01/04 00:06:26;;;;;;;16.27;3.85;;;8.60;99.90;;;;;;5135030;28;20083;-66
2022/01/04 00:08:59;;;;;;;10.98;2.63;;;8.40;99.90;;;;;;5099175;28;20043;-66
2022/01/04 00:14:12;;;;;;;13.15;3.10;;;8.90;99.90;;;;;;5116562;28;20086;-66
2022/01/04 00:16:38;;;;;;;8.75;2.95;;;8.50;99.90;;;;;;5134371;28;20191;-66
2022/01/04 00:19:04;;;;;;;12.07;2.88;;;8.40;99.90;;;;;;5116172;28;20050;-66
2022/01/04 00:21:29;;;;;;;8.60;2.90;;;8.50;99.90;;;;;;5134326;28;20043;-66
2022/01/04 00:23:55;;;;;;;7.38;2.33;;;8.50;99.90;;;;;;5116281;28;20047;-66
2022/01/04 00:26:21;;;;;;;11.10;2.83;;;8.60;99.90;;;;;;5099210;28;20070;-66
2022/01/04 00:28:47;;;;;;;10.25;3.22;;;9.10;99.90;;;;;;5116044;28;20043;-66
2022/01/04 00:31:13;;;;;;;8.68;2.35;;;8.60;99.90;;;;;;5098920;28;20044;-66
2022/01/04 00:33:38;;;;;;;11.68;2.47;;;8.60;99.90;;;;;;5134154;28;20083;-66
2022/01/04 00:36:06;;;;;;;10.88;2.42;;;8.60;99.90;;;;;;5115911;28;20047;-66
2022/01/04 00:38:32;;;;;;;12.73;3.05;;;8.60;99.90;;;;;;5115832;28;20043;-66
2022/01/04 00:40:58;;;;;;;10.38;2.78;;;8.60;99.90;;;;;;5116115;28;20112;-66
2022/01/04 00:43:24;;;;;;;10.60;3.08;;;8.60;99.90;;;;;;5133888;28;20510;-66
2022/01/04 00:45:51;;;;;;;14.98;2.95;;;8.70;99.90;;;;;;5134173;28;20075;-66
2022/01/04 00:50:43;;;;;;;13.45;3.95;;;8.60;99.90;;;;;;5133965;28;20103;-66
2022/01/04 00:53:09;;;;;;;12.95;3.63;;;8.60;99.90;;;;;;5134535;28;20088;-67
2022/01/04 00:55:35;;;;;;;11.60;2.90;;;8.70;99.90;;;;;;5134085;28;20096;-66
2022/01/04 00:58:02;;;;;;;14.45;3.20;;;9.00;99.90;;;;;;5111917;28;20094;-66
2022/01/04 01:00:28;;;;;;;13.98;3.28;;;8.90;99.90;;;;;;5113487;28;20079;-66
2022/01/04 01:02:54;;;;;;;11.15;4.10;;;9.20;99.90;;;;;;5113400;28;20085;-66
2022/01/04 01:05:24;;;;;;;7.93;2.58;;;8.70;99.90;;;;;;5079303;28;20500;-66
2022/01/04 01:07:54;;;;;;;9.55;3.28;;;8.70;99.90;;;;;;5112302;28;20035;-66
2022/01/04 01:13:04;;;;;;;14.48;2.88;;;9.00;99.90;;;;;;5112417;28;20479;-66
2022/01/04 01:15:30;;;;;;;12.20;3.42;;;9.30;99.90;;;;;;5113344;28;20046;-66
2022/01/04 01:17:56;;;;;;;9.18;3.05;;;9.00;99.90;;;;;;5116921;28;20047;-66
2022/01/04 01:20:21;;;;;;;11.82;2.88;;;8.80;99.90;;;;;;5117010;28;20072;-66
2022/01/04 01:22:47;;;;;;;10.23;3.05;;;8.50;99.90;;;;;;5115661;28;20043;-66
2022/01/04 01:25:14;;;;;;;10.10;3.03;;;8.40;99.90;;;;;;5116879;28;20043;-66
2022/01/04 01:27:41;;;;;;;9.70;2.80;;;8.60;99.90;;;;;;5116449;28;20032;-66
2022/01/04 01:30:08;;;;;;;11.65;3.10;;;8.90;99.90;;;;;;5115286;28;20507;-66
2022/01/04 01:32:33;;;;;;;14.40;3.58;;;8.60;99.90;;;;;;5115394;28;20047;-66
2022/01/04 01:34:59;;;;;;;12.27;2.88;;;8.60;99.90;;;;;;5116730;28;20542;-66
2022/01/04 01:37:25;;;;;;;11.60;3.38;;;8.50;99.90;;;;;;5116640;28;20093;-66
2022/01/04 01:39:51;;;;;;;13.18;2.88;;;8.50;99.90;;;;;;5115277;28;20107;-67
2022/01/04 01:42:16;;;;;;;13.35;3.45;;;8.50;99.90;;;;;;5116167;28;20559;-66
2022/01/04 01:44:42;;;;;;;10.68;3.03;;;8.50;99.90;;;;;;5116699;28;20057;-66
2022/01/04 01:47:08;;;;;;;9.15;2.58;;;8.60;99.90;;;;;;5115205;28;20120;-66
2022/01/04 01:49:34;;;;;;;15.75;3.70;;;8.50;99.90;;;;;;5116956;28;20177;-67
2022/01/04 01:52:00;;;;;;;11.38;3.75;;;8.50;99.90;;;;;;5115102;28;20040;-66
2022/01/04 01:54:26;;;;;;;10.63;3.42;;;8.60;99.90;;;;;;5115889;28;20043;-66
2022/01/04 01:56:52;;;;;;;13.38;3.75;;;8.80;99.90;;;;;;5119048;27;20047;-66
2022/01/04 01:59:18;;;;;;;14.18;3.28;;;8.60;99.90;;;;;;5136786;27;20100;-66
2022/01/04 02:01:44;;;;;;;12.80;3.83;;;8.90;99.90;;;;;;5118352;27;20044;-66
2022/01/04 02:04:10;;;;;;;11.20;3.47;;;8.40;99.90;;;;;;5136510;27;20043;-66
2022/01/04 02:06:36;;;;;;;9.00;2.95;;;8.60;99.90;;;;;;5118325;27;20043;-66
2022/01/04 02:09:04;;;;;;;9.23;3.15;;;8.60;99.90;;;;;;5136510;27;20047;-66
2022/01/04 02:11:30;;;;;;;9.80;4.13;;;8.80;99.90;;;;;;5137001;27;20085;-66
2022/01/04 02:14:01;;;;;;;7.95;2.95;;;8.60;99.90;;;;;;5118051;27;20103;-66
2022/01/04 02:16:28;;;;;;;11.93;3.58;;;8.70;99.90;;;;;;5137221;27;20063;-66
2022/01/04 02:19:07;;;;;;;12.68;3.17;;;8.60;99.90;;;;;;5136359;27;20043;-66
2022/01/04 02:21:35;;;;;;;13.68;3.78;;;8.60;99.90;;;;;;5118547;27;20118;-66
2022/01/04 02:24:01;;;;;;;15.00;3.95;;;8.60;99.90;;;;;;5136210;27;20095;-66
2022/01/04 02:26:30;;;;;;;13.27;3.47;;;9.00;99.90;;;;;;5135913;27;20057;-66
2022/01/04 02:28:56;;;;;;;12.13;3.67;;;9.20;99.90;;;;;;5118011;27;20047;-66
2022/01/04 02:31:22;;;;;;;12.18;3.05;;;8.80;99.90;;;;;;5136594;27;20047;-66
2022/01/04 02:33:47;;;;;;;13.15;3.95;;;8.90;99.90;;;;;;5117783;27;20129;-66
2022/01/04 02:36:13;;;;;;;11.63;3.35;;;9.10;99.90;;;;;;5117681;27;20043;-66
2022/01/04 02:38:39;;;;;;;10.15;3.53;;;8.70;99.90;;;;;;5135965;27;20039;-66
2022/01/04 02:41:05;;;;;;;9.07;3.40;;;8.80;99.90;;;;;;5136435;27;20117;-66
2022/01/04 02:43:30;;;;;;;11.63;2.90;;;9.00;99.90;;;;;;5100666;27;20376;-66
2022/01/04 02:45:56;;;;;;;17.80;3.75;;;8.70;99.90;;;;;;5135734;27;20551;-66
2022/01/04 02:48:22;;;;;;;12.45;3.95;;;8.70;99.90;;;;;;5101462;27;20043;-66
2022/01/04 02:50:51;;;;;;;9.90;3.17;;;8.80;99.90;;;;;;5135633;27;20035;-65
2022/01/04 02:53:18;;;;;;;9.35;3.22;;;8.50;99.90;;;;;;5135641;27;20054;-66
2022/01/04 02:55:45;;;;;;;16.55;4.10;;;8.70;99.90;;;;;;5100556;27;20507;-66
2022/01/04 02:58:11;;;;;;;11.95;3.67;;;9.00;99.90;;;;;;5135566;27;20509;-66
2022/01/04 03:00:37;;;;;;;20.00;4.00;;;8.60;99.90;;;;;;5117248;27;20089;-66
2022/01/04 03:03:03;;;;;;;9.77;3.72;;;9.10;99.90;;;;;;5135444;27;20063;-66
2022/01/04 03:05:28;;;;;;;10.25;3.47;;;8.60;99.90;;;;;;5135505;27;20066;-66
2022/01/04 03:07:54;;;;;;;14.63;3.35;;;8.70;99.90;;;;;;5100011;27;20078;-66
2022/01/04 03:10:20;;;;;;;10.73;4.00;;;8.70;99.90;;;;;;5136086;27;20047;-66
2022/01/04 03:12:45;;;;;;;13.55;3.92;;;8.90;99.90;;;;;;5117026;27;20039;-66
2022/01/04 03:15:13;;;;;;;12.57;4.22;;;8.60;99.90;;;;;;5135497;27;20130;-66
2022/01/04 03:17:40;;;;;;;12.45;3.63;;;8.70;99.90;;;;;;5135227;27;20043;-66
2022/01/04 03:20:07;;;;;;;11.10;4.30;;;9.00;99.90;;;;;;5135116;27;20054;-66
2022/01/04 03:22:33;;;;;;;15.30;4.47;;;8.70;99.90;;;;;;5116818;27;20510;-66
2022/01/04 03:24:59;;;;;;;13.65;4.88;;;9.00;99.90;;;;;;5116821;27;20047;-66
2022/01/04 03:27:24;;;;;;;12.52;4.65;;;9.00;99.90;;;;;;5135544;27;20046;-66
2022/01/04 03:29:50;;;;;;;15.73;4.95;;;8.70;99.90;;;;;;5134976;27;20055;-66
2022/01/04 03:32:16;;;;;;;17.95;5.53;;;8.70;99.90;;;;;;5134855;27;20039;-66
2022/01/04 03:34:41;;;;;;;12.75;4.53;;;9.00;99.90;;;;;;5135393;27;20478;-66
2022/01/04 03:37:07;;;;;;;16.83;5.18;;;8.90;99.90;;;;;;5134533;27;20046;-66
2022/01/04 03:39:33;;;;;;;13.75;4.45;;;9.20;99.90;;;;;;5116216;27;20039;-67
2022/01/04 03:41:59;;;;;;;10.18;4.57;;;8.50;99.90;;;;;;5099492;27;20051;-66
2022/01/04 03:44:24;;;;;;;13.02;4.35;;;8.90;99.90;;;;;;5116160;27;20130;-66
2022/01/04 03:46:53;;;;;;;17.30;5.18;;;8.90;99.90;;;;;;5099654;27;20055;-66
2022/01/04 03:49:19;;;;;;;14.65;5.18;;;8.80;99.90;;;;;;5134690;27;20536;-66
2022/01/04 03:51:45;;;;;;;14.35;4.57;;;8.60;99.90;;;;;;5099640;27;20039;-66
2022/01/04 03:54:11;;;;;;;16.23;4.78;;;8.70;99.90;;;;;;5116277;27;20216;-66
2022/01/04 03:56:37;;;;;;;16.70;4.50;;;8.60;99.90;;;;;;5116927;28;20047;-66
2022/01/04 03:59:03;;;;;;;11.00;4.40;;;8.80;99.90;;;;;;5135623;27;20348;-66
2022/01/04 04:01:29;;;;;;;12.65;4.65;;;8.60;99.90;;;;;;5134625;28;20427;-66
2022/01/04 04:03:55;;;;;;;15.45;5.03;;;8.60;99.90;;;;;;5134465;28;20078;-66
2022/01/04 04:06:20;;;;;;;13.90;4.55;;;8.60;99.90;;;;;;5115871;28;20050;-66
2022/01/04 04:08:46;;;;;;;16.13;5.57;;;8.70;99.90;;;;;;5134517;28;20093;-66
2022/01/04 04:11:12;;;;;;;14.05;5.55;;;8.50;99.90;;;;;;5116207;28;20129;-66
2022/01/04 04:13:38;;;;;;;15.65;5.63;;;8.60;99.90;;;;;;5134499;28;20372;-66
2022/01/04 04:16:04;;;;;;;12.88;6.30;;;8.70;99.90;;;;;;5134439;28;20043;-66
2022/01/04 04:18:30;;;;;;;19.52;7.07;;;8.50;99.90;;;;;;5116031;28;20047;-66
2022/01/04 04:20:56;;;;;;;19.67;6.90;;;8.90;99.90;;;;;;5115971;28;20043;-66
2022/01/04 04:23:22;;;;;;;25.63;7.88;;;8.70;99.90;;;;;;5134360;28;20087;-66
2022/01/04 04:25:48;;;;;;;19.23;8.52;;;8.70;99.90;;;;;;5134841;28;20051;-66
2022/01/04 04:28:14;;;;;;;20.00;9.25;;;8.20;99.90;;;;;;5099530;28;20051;-66
2022/01/04 04:30:39;;;;;;;25.80;11.05;;;8.50;99.90;;;;;;5134165;28;20064;-66
2022/01/04 04:33:05;;;;;;;29.52;12.88;;;9.10;99.90;;;;;;5134190;28;20047;-66
2022/01/04 04:35:31;;;;;;;24.13;10.63;;;8.50;99.90;;;;;;5099149;28;20043;-66
2022/01/04 04:37:59;;;;;;;21.98;10.20;;;8.90;99.90;;;;;;5116346;28;20043;-66
2022/01/04 04:40:25;;;;;;;21.70;9.95;;;8.70;99.90;;;;;;5099131;28;20094;-66
2022/01/04 04:42:51;;;;;;;18.25;10.07;;;8.90;99.90;;;;;;5099136;28;20046;-66
2022/01/04 04:45:16;;;;;;;20.10;9.63;;;8.50;99.90;;;;;;5133796;28;20043;-66
2022/01/04 04:47:42;;;;;;;18.88;8.63;;;8.50;99.90;;;;;;5116042;28;20178;-66
2022/01/04 04:50:08;;;;;;;17.08;8.65;;;8.60;99.90;;;;;;5117414;27;20047;-67
2022/01/04 04:52:34;;;;;;;19.70;7.88;;;8.30;99.90;;;;;;5119853;27;20043;-66
2022/01/04 04:55:00;;;;;;;16.35;6.93;;;8.70;99.90;;;;;;5138271;27;20103;-66
2022/01/04 04:57:26;;;;;;;17.50;6.78;;;8.50;99.90;;;;;;5119449;27;20479;-65
2022/01/04 04:59:51;;;;;;;16.55;7.03;;;8.50;99.90;;;;;;5103599;27;20059;-66
2022/01/04 05:02:17;;;;;;;15.55;6.22;;;8.50;99.90;;;;;;5119580;27;20045;-66
2022/01/04 05:04:43;;;;;;;20.45;7.25;;;8.50;99.90;;;;;;5120260;27;20039;-65
2022/01/04 05:07:09;;;;;;;18.52;7.03;;;8.40;99.90;;;;;;5119978;27;20039;-66
2022/01/04 05:09:34;;;;;;;18.45;7.22;;;8.50;99.90;;;;;;5120248;27;20047;-66
2022/01/04 05:12:01;;;;;;;16.48;7.10;;;8.50;99.90;;;;;;5119267;27;20490;-66
2022/01/04 05:14:27;;;;;;;15.32;7.10;;;8.60;99.90;;;;;;5120039;27;20048;-66
2022/01/04 05:16:53;;;;;;;15.13;7.03;;;8.50;99.90;;;;;;5119161;27;20123;-66
2022/01/04 05:19:18;;;;;;;16.05;6.72;;;8.80;99.90;;;;;;5119356;27;20130;-66
2022/01/04 05:21:44;;;;;;;16.05;7.15;;;8.50;99.90;;;;;;5119550;27;20494;-66
2022/01/04 05:24:11;;;;;;;20.88;7.45;;;8.70;99.90;;;;;;5119157;27;20050;-66
2022/01/04 05:26:37;;;;;;;16.67;7.05;;;8.70;99.90;;;;;;5119511;27;20051;-66
2022/01/04 05:29:03;;;;;;;18.95;8.35;;;8.70;99.90;;;;;;5118982;27;20372;-66
2022/01/04 05:31:29;;;;;;;15.65;7.53;;;8.70;99.90;;;;;;5137995;27;20050;-65
2022/01/04 05:33:55;;;;;;;16.20;7.07;;;8.50;99.90;;;;;;5119835;27;20050;-65
2022/01/04 05:36:21;;;;;;;17.60;7.40;;;8.90;99.90;;;;;;5119445;27;20118;-65
2022/01/04 05:38:49;;;;;;;17.05;6.97;;;8.50;99.90;;;;;;5101758;27;20100;-65
2022/01/04 05:41:15;;;;;;;20.60;7.85;;;8.50;99.90;;;;;;5136752;27;20501;-65
2022/01/04 05:43:41;;;;;;;14.95;6.72;;;8.80;99.90;;;;;;5101695;27;20055;-65
2022/01/04 05:46:07;;;;;;;19.77;7.35;;;8.50;99.90;;;;;;5137024;27;20039;-65
2022/01/04 05:48:32;;;;;;;19.25;6.85;;;8.60;99.90;;;;;;5137745;27;20040;-65
2022/01/04 05:50:58;;;;;;;21.45;7.47;;;8.50;99.90;;;;;;5136848;27;20479;-65
2022/01/04 05:53:24;;;;;;;16.27;6.72;;;8.60;99.90;;;;;;5101757;27;20153;-65
2022/01/04 05:55:50;;;;;;;17.98;6.88;;;8.40;99.90;;;;;;5136789;27;20479;-65
2022/01/04 05:58:16;;;;;;;17.73;7.15;;;8.60;99.90;;;;;;5137075;27;20051;-65
2022/01/04 06:00:42;;;;;;;19.13;7.38;;;8.50;99.90;;;;;;5136706;27;20487;-65
2022/01/04 06:03:08;;;;;;;18.52;6.68;;;8.80;99.90;;;;;;5118043;27;20050;-65
2022/01/04 06:05:33;;;;;;;19.85;6.90;;;8.50;99.90;;;;;;5136633;27;20043;-65
2022/01/04 06:07:59;;;;;;;21.30;7.60;;;8.80;99.90;;;;;;5136566;27;20051;-65
2022/01/04 06:10:25;;;;;;;17.13;7.38;;;8.50;99.90;;;;;;5137228;27;20039;-65
2022/01/04 06:15:17;;;;;;;15.88;7.45;;;8.50;99.90;;;;;;5118603;27;20471;-65
2022/01/04 06:17:52;;;;;;;16.05;6.70;;;8.80;99.90;;;;;;5118009;27;20547;-65
2022/01/04 06:20:21;;;;;;;17.30;7.07;;;8.50;99.90;;;;;;5136969;27;20047;-65
2022/01/04 06:22:47;;;;;;;16.13;7.60;;;8.90;99.90;;;;;;5117598;27;20051;-65
2022/01/04 06:25:15;;;;;;;17.23;6.93;;;8.50;99.90;;;;;;5117906;27;20123;-65
2022/01/04 06:27:46;;;;;;;15.40;7.78;;;9.50;99.90;;;;;;5117978;27;20043;-65
2022/01/04 06:30:15;;;;;;;17.23;7.75;;;8.50;99.90;;;;;;5136671;27;20163;-65
2022/01/04 06:32:45;;;;;;;24.17;8.00;;;8.90;99.90;;;;;;5101165;27;20051;-65
2022/01/04 06:35:13;;;;;;;18.33;7.85;;;8.50;99.90;;;;;;5135988;27;20051;-65
2022/01/04 06:37:41;;;;;;;18.98;8.40;;;8.50;99.90;;;;;;5136007;27;20043;-65
2022/01/04 06:40:11;;;;;;;16.23;8.20;;;8.40;99.90;;;;;;5135966;27;20105;-65
2022/01/04 06:42:37;;;;;;;17.63;8.38;;;8.50;99.90;;;;;;5117494;27;20061;-66
2022/01/04 06:45:03;;;;;;;21.77;8.60;;;8.50;99.90;;;;;;5100597;27;20049;-65
2022/01/04 06:47:29;;;;;;;19.13;8.20;;;8.20;99.90;;;;;;5084298;27;20110;-65
2022/01/04 06:49:55;;;;;;;18.63;7.63;;;8.50;99.90;;;;;;5117662;27;20051;-65
2022/01/04 06:52:21;;;;;;;20.08;8.25;;;8.70;99.90;;;;;;5135583;27;20135;-65
2022/01/04 06:54:46;;;;;;;15.13;7.45;;;8.30;99.90;;;;;;5136232;27;20046;-65
2022/01/04 06:57:12;;;;;;;16.23;7.25;;;8.20;99.90;;;;;;5117606;27;20051;-65
2022/01/04 06:59:38;;;;;;;14.23;7.57;;;8.30;99.90;;;;;;5117017;27;20051;-65
2022/01/04 07:02:04;;;;;;;16.63;7.13;;;8.60;99.90;;;;;;5117126;27;20092;-65
2022/01/04 07:04:29;;;;;;;21.20;8.00;;;8.30;99.90;;;;;;5117502;27;20035;-65
2022/01/04 07:06:55;;;;;;;18.67;7.72;;;8.70;99.90;;;;;;5135366;27;20043;-65
2022/01/04 07:09:21;;;;;;;18.83;7.70;;;8.50;99.90;;;;;;5135593;27;20054;-65
2022/01/04 07:11:46;;;;;;;16.60;8.13;;;8.80;99.90;;;;;;5117650;27;20038;-65
2022/01/04 07:14:12;;;;;;;17.75;7.78;;;8.40;99.90;;;;;;5099196;27;20126;-65
2022/01/04 07:16:38;;;;;;;20.05;8.43;;;8.40;99.90;;;;;;5135204;27;20047;-65
2022/01/04 07:19:03;;;;;;;21.02;8.38;;;8.70;99.90;;;;;;5116781;27;20493;-65
2022/01/04 07:21:29;;;;;;;23.55;8.80;;;8.70;99.90;;;;;;5100238;27;20047;-65
2022/01/04 07:23:55;;;;;;;21.95;9.02;;;8.40;99.90;;;;;;5116726;27;20047;-65
2022/01/04 07:26:22;;;;;;;21.95;8.93;;;8.40;99.90;;;;;;5116891;27;20051;-65
2022/01/04 07:28:48;;;;;;;19.08;8.75;;;8.30;99.90;;;;;;5117343;27;20083;-65
2022/01/04 07:31:16;;;;;;;20.77;8.32;;;8.50;99.90;;;;;;5117453;27;20050;-65
2022/01/04 07:33:42;;;;;;;19.70;8.93;;;8.40;99.90;;;;;;5099665;27;20490;-65
2022/01/04 07:36:08;;;;;;;16.45;8.40;;;8.30;99.90;;;;;;5134828;27;20043;-66
2022/01/04 07:38:35;;;;;;;17.65;7.57;;;8.50;99.90;;;;;;5134541;27;20050;-65
2022/01/04 07:41:02;;;;;;;14.77;7.35;;;8.40;99.90;;;;;;5135083;27;20093;-66
2022/01/04 07:43:27;;;;;;;13.13;5.60;;;8.30;99.90;;;;;;5117498;27;20436;-65
2022/01/04 07:45:53;;;;;;;13.70;5.25;;;8.60;99.90;;;;;;5134958;27;20047;-65
2022/01/04 07:48:20;;;;;;;9.23;5.15;;;8.40;99.90;;;;;;5134703;27;20510;-66
2022/01/04 07:50:46;;;;;;;16.17;6.03;;;8.20;99.90;;;;;;5099749;27;20047;-65
2022/01/04 07:53:12;;;;;;;9.82;4.90;;;8.30;99.90;;;;;;5099843;27;20051;-66
2022/01/04 07:55:37;;;;;;;12.45;4.95;;;8.10;99.90;;;;;;5134626;27;20466;-65
2022/01/04 07:58:03;;;;;;;13.70;5.97;;;8.10;99.90;;;;;;5134484;27;20063;-65
2022/01/04 08:00:29;;;;;;;16.45;6.60;;;8.40;99.90;;;;;;5134584;27;20051;-65
2022/01/04 08:02:55;;;;;;;14.65;5.40;;;8.80;99.90;;;;;;5117210;28;20039;-66
2022/01/04 08:05:22;;;;;;;12.07;5.88;;;8.10;99.90;;;;;;5116281;28;20047;-66
2022/01/04 08:07:48;;;;;;;13.60;6.50;;;8.00;99.90;;;;;;5134465;28;20039;-66
2022/01/04 08:10:13;;;;;;;14.20;6.68;;;8.20;99.90;;;;;;5116900;28;20178;-65
2022/01/04 08:12:40;;;;;;;15.95;6.85;;;8.40;99.90;;;;;;5115981;28;20507;-66
2022/01/04 08:15:08;;;;;;;16.23;7.47;;;8.00;99.90;;;;;;5134652;28;20546;-65
2022/01/04 08:17:36;;;;;;;15.85;6.63;;;8.00;99.90;;;;;;5117437;28;20043;-64
2022/01/04 08:20:03;;;;;;;12.98;5.57;;;8.10;99.90;;;;;;5116571;28;20051;-65
2022/01/04 08:22:32;;;;;;;16.70;7.32;;;8.10;99.90;;;;;;5134492;28;20104;-65
2022/01/04 08:25:01;;;;;;;14.77;6.13;;;8.20;99.90;;;;;;5136139;27;20043;-68
2022/01/04 08:27:27;;;;;;;4.53;1.17;;;8.10;99.90;;;;;;5138430;27;20586;-66
2022/01/04 08:29:53;;;;;;;6.63;1.63;;;8.30;99.90;;;;;;5103571;27;20058;-66
2022/01/04 08:32:19;;;;;;;3.15;0.70;;;8.40;99.90;;;;;;5139086;27;20047;-65
2022/01/04 08:34:45;;;;;;;3.10;1.10;;;8.10;99.90;;;;;;5121232;27;20047;-67
2022/01/04 08:37:11;;;;;;;4.85;1.20;;;8.00;99.90;;;;;;5122323;27;20079;-64
2022/01/04 08:39:37;;;;;;;7.53;2.30;;;7.90;99.90;;;;;;5138471;27;20088;-65
2022/01/04 08:42:03;;;;;;;7.45;3.20;;;7.70;99.90;;;;;;5120013;27;20047;-65
2022/01/04 08:44:30;;;;;;;6.63;2.15;;;7.60;99.90;;;;;;5103981;27;20054;-65
2022/01/04 08:46:57;;;;;;;5.43;1.73;;;7.80;99.90;;;;;;5138591;27;20074;-66
2022/01/04 08:49:22;;;;;;;6.32;1.58;;;7.70;99.90;;;;;;5103106;27;20039;-66
2022/01/04 08:51:48;;;;;;;7.25;1.95;;;7.50;99.90;;;;;;5120622;27;20051;-66
2022/01/04 08:54:14;;;;;;;7.63;2.30;;;7.50;99.90;;;;;;5138997;27;20131;-67
2022/01/04 08:56:41;;;;;;;6.20;2.15;;;8.20;99.90;;;;;;5103113;27;20043;-66
2022/01/04 08:59:08;;;;;;;8.50;1.88;;;7.60;99.90;;;;;;5119620;27;20070;-66
2022/01/04 09:01:35;;;;;;;4.72;1.90;;;7.70;99.90;;;;;;5138192;27;20502;-66
2022/01/04 09:04:01;;;;;;;5.15;1.98;;;7.70;99.90;;;;;;5119702;27;20051;-66
2022/01/04 09:06:27;;;;;;;4.72;1.98;;;7.80;99.90;;;;;;5119707;27;20092;-66
2022/01/04 09:08:55;;;;;;;6.88;1.80;;;7.70;99.90;;;;;;5138216;27;20060;-66
2022/01/04 09:11:22;;;;;;;5.03;2.15;;;8.00;99.90;;;;;;5119616;27;20499;-66
2022/01/04 09:13:56;;;;;;;7.15;2.03;;;7.80;99.90;;;;;;5137763;27;20043;-72
2022/01/04 09:19:07;;;;;;;8.10;1.63;;;8.00;99.90;;;;;;5137732;27;20043;-69
2022/01/04 09:21:32;;;;;;;8.45;2.20;;;7.90;99.90;;;;;;5085879;27;20058;-68
2022/01/04 09:23:59;;;;;;;6.15;2.03;;;8.00;99.90;;;;;;5137642;27;20039;-68
2022/01/04 09:26:27;;;;;;;7.25;1.98;;;8.00;99.90;;;;;;5138104;27;20129;-68
2022/01/04 09:28:54;;;;;;;8.07;1.80;;;7.70;99.90;;;;;;5137467;27;20046;-70
2022/01/04 09:31:21;;;;;;;9.93;1.92;;;8.00;99.90;;;;;;5103004;27;20372;-68
2022/01/04 09:33:47;;;;;;;4.60;1.70;;;7.90;99.90;;;;;;5137291;27;20130;-67
2022/01/04 09:36:13;;;;;;;8.02;1.67;;;8.10;99.90;;;;;;5118416;28;20135;-69
2022/01/04 09:38:39;;;;;;;9.70;2.38;;;7.80;99.90;;;;;;5115209;27;20035;-69
2022/01/04 09:41:04;;;;;;;4.10;1.10;;;7.50;99.90;;;;;;5134529;27;20044;-70
2022/01/04 09:43:30;;;;;;;4.68;1.00;;;8.10;99.90;;;;;;5099620;27;20451;-70
2022/01/04 09:45:56;;;;;;;4.82;1.35;;;7.90;99.90;;;;;;5115813;27;20046;-70
2022/01/04 09:48:22;;;;;;;3.38;1.00;;;7.70;99.90;;;;;;5133120;27;20058;-72
2022/01/04 09:50:48;;;;;;;3.47;0.70;;;7.70;99.90;;;;;;5135016;27;20050;-69
2022/01/04 09:53:25;;;;;;;6.22;0.98;;;7.50;99.90;;;;;;5133962;27;20556;-68
2022/01/04 09:55:53;;;;;;;2.35;0.70;;;7.50;99.90;;;;;;5099236;27;20498;-68
2022/01/04 09:58:21;;;;;;;1.80;0.77;;;7.80;99.90;;;;;;5115439;27;20059;-67
2022/01/04 10:00:47;;;;;;;5.85;0.90;;;7.60;99.90;;;;;;5134147;27;20131;-72
2022/01/04 10:03:17;;;;;;;2.22;0.43;;;7.60;99.90;;;;;;5098776;27;20125;-72
2022/01/04 10:05:44;;;;;;;3.13;0.30;;;7.50;99.90;;;;;;5133443;27;20046;-71
2022/01/04 10:08:11;;;;;;;1.58;0.30;;;7.60;99.90;;;;;;5116234;27;20054;-66
2022/01/04 10:10:39;;;;;;;0.63;0.25;;;7.60;99.90;;;;;;5134754;27;20126;-71
2022/01/04 10:13:09;;;;;;;2.25;0.20;;;7.20;99.90;;;;;;5133607;27;20046;-70
2022/01/04 10:15:52;;;;;;;1.20;0.30;;;8.00;99.90;;;;;;5134023;27;20092;-72
2022/01/04 10:18:23;;;;;;;;;;;7.30;99.90;;;;;;5116978;27;20348;-71
2022/01/04 10:21:12;;;;;;;4.97;0.55;;;7.20;99.90;;;;;;5115951;27;20390;-70
2022/01/04 10:23:56;;;;;;;0.70;0.30;;;7.20;99.90;;;;;;5116280;27;20093;-69
2022/01/04 10:26:39;;;;;;;2.28;0.30;;;7.40;99.90;;;;;;5134481;27;20050;-70
2022/01/04 10:29:25;;;;;;;1.95;0.30;;;7.20;99.90;;;;;;5134567;27;20486;-70
2022/01/04 10:31:51;;;;;;;3.22;0.73;;;7.80;99.90;;;;;;5115260;27;20043;-69
2022/01/04 10:34:16;;;;;;;1.75;0.30;;;7.30;99.90;;;;;;5115194;27;20374;-71
2022/01/04 10:36:44;;;;;;;2.20;0.32;;;7.30;99.90;;;;;;5133975;27;20044;-66
2022/01/04 10:39:10;;;;;;;2.65;0.40;;;7.00;99.90;;;;;;5133677;27;20047;-72
2022/01/04 10:41:36;;;;;;;4.25;0.40;;;7.30;99.90;;;;;;5114871;27;20046;-70
2022/01/04 10:44:09;;;;;;;2.58;0.50;;;7.30;99.90;;;;;;5098322;27;20047;-70
2022/01/04 10:46:45;;;;;;;2.10;0.47;;;6.90;99.90;;;;;;5132731;27;20043;-68
2022/01/04 10:49:22;;;;;;;1.15;0.40;;;7.10;99.90;;;;;;5114378;27;20563;-73
2022/01/04 10:52:05;;;;;;;1.80;0.30;;;6.80;99.90;;;;;;5133699;27;20110;-69
2022/01/04 10:54:31;;;;;;;1.95;0.60;;;6.90;99.90;;;;;;5132892;27;20051;-71
2022/01/04 10:57:08;;;;;;;2.15;0.60;;;7.10;99.90;;;;;;5133366;27;20540;-69
2022/01/04 10:59:35;;;;;;;3.35;0.30;;;6.90;99.90;;;;;;5114428;27;20051;-73
2022/01/04 11:02:01;;;;;;;1.80;0.40;;;6.90;99.90;;;;;;5114673;27;20062;-68
2022/01/04 11:04:27;;;;;;;1.00;0.30;;;6.60;99.90;;;;;;5097959;27;20481;-69
2022/01/04 11:07:01;;;;;;;0.93;0.20;;;6.60;99.90;;;;;;5133234;27;20101;-67
2022/01/04 11:09:27;;;;;;;3.72;0.28;;;6.40;99.90;;;;;;5114930;27;20040;-70
2022/01/04 11:11:52;;;;;;;0.57;0.20;;;6.40;99.90;;;;;;5133992;27;20119;-68
2022/01/04 11:14:19;;;;;;;1.42;0.30;;;7.10;99.90;;;;;;5131986;27;20042;-71
2022/01/04 11:16:44;;;;;;;2.03;0.28;;;6.80;99.90;;;;;;5115398;27;20062;-69
2022/01/04 11:19:10;;;;;;;1.67;0.30;;;6.80;99.90;;;;;;5132730;27;20451;-69
2022/01/04 11:21:42;;;;;;;1.70;0.30;;;6.30;99.90;;;;;;5132610;27;20035;-68
2022/01/04 11:24:12;;;;;;;3.47;0.22;;;6.50;99.90;;;;;;5132941;27;20086;-71
2022/01/04 11:26:44;;;;;;;2.05;0.30;;;6.90;99.90;;;;;;5132883;27;20439;-70
2022/01/04 11:29:11;;;;;;;2.28;0.60;;;6.60;99.90;;;;;;5133511;27;20078;-70
2022/01/04 11:31:54;;;;;;;3.05;0.35;;;6.60;99.90;;;;;;5096889;27;20035;-69
2022/01/04 11:35:08;;;;;;;2.75;0.30;;;6.50;99.90;;;;;;5132042;27;20075;-69
2022/01/04 11:37:35;;;;;;;1.48;0.20;;;6.40;99.90;;;;;;5132626;27;20072;-70
2022/01/04 11:40:22;;;;;;;2.08;0.13;;;6.80;99.90;;;;;;5114156;27;20039;-70
2022/01/04 11:42:47;;;;;;;0.47;0.15;;;6.90;99.90;;;;;;5132199;27;20047;-70
2022/01/04 11:45:15;;;;;;;2.92;0.25;;;6.40;99.90;;;;;;5098773;27;20143;-70
2022/01/04 11:47:47;;;;;;;2.10;0.20;;;6.30;99.90;;;;;;5117936;27;20073;-66
2022/01/04 11:50:16;;;;;;;1.83;0.40;;;6.10;99.90;;;;;;5114879;27;20099;-66
2022/01/04 11:52:44;;;;;;;2.60;0.40;;;5.30;99.90;;;;;;5132712;27;20092;-69
2022/01/04 11:55:21;;;;;;;2.38;0.65;;;6.30;99.90;;;;;;5132914;27;20457;-74
2022/01/04 11:57:48;;;;;;;3.53;0.32;;;6.00;99.90;;;;;;5114634;27;20489;-69
2022/01/04 12:00:37;;;;;;;2.80;0.60;;;6.20;99.90;;;;;;5097393;27;20502;-71
2022/01/04 12:03:20;;;;;;;5.78;1.17;;;6.10;99.90;;;;;;5131992;27;20046;-68
2022/01/04 12:05:54;;;;;;;3.85;0.50;;;6.20;99.90;;;;;;5132382;27;20035;-69
2022/01/04 12:08:23;;;;;;;2.40;0.30;;;6.10;99.90;;;;;;5132035;28;20198;-71
2022/01/04 12:10:50;;;;;;;2.33;0.47;;;6.10;99.90;;;;;;5132384;28;20072;-72
2022/01/04 12:13:24;;;;;;;2.50;0.30;;;5.00;99.90;;;;;;5132132;28;20039;-69
2022/01/04 12:16:04;;;;;;;2.72;0.30;;;6.00;99.90;;;;;;5114084;28;20095;-69
2022/01/04 12:18:36;;;;;;;1.02;0.40;;;6.10;99.90;;;;;;5129265;28;20093;-69
2022/01/04 12:21:15;;;;;;;4.43;0.70;;;6.10;99.90;;;;;;5131446;28;20050;-69
2022/01/04 12:23:45;;;;;;;3.55;0.38;;;6.00;99.90;;;;;;5132255;28;20039;-69
2022/01/04 12:26:16;;;;;;;1.75;0.30;;;6.30;99.90;;;;;;5113992;28;20047;-70
2022/01/04 12:28:55;;;;;;;1.83;0.40;;;6.40;99.90;;;;;;5113548;28;20042;-69
2022/01/04 12:31:24;;;;;;;1.23;0.30;;;6.30;99.90;;;;;;5113392;28;20536;-72
2022/01/04 12:34:03;;;;;;;2.65;0.30;;;6.50;99.90;;;;;;5113654;28;20096;-69
2022/01/04 12:36:41;;;;;;;4.88;0.30;;;5.70;99.90;;;;;;5132319;28;20054;-70
2022/01/04 12:39:12;;;;;;;3.92;0.32;;;6.20;99.90;;;;;;5132028;28;20066;-69
2022/01/04 12:41:40;;;;;;;2.05;0.40;;;6.20;99.90;;;;;;5114260;28;20477;-71
2022/01/04 12:44:07;;;;;;;3.15;0.65;;;6.20;99.90;;;;;;5097189;28;20047;-69
2022/01/04 12:46:38;;;;;;;3.15;0.40;;;6.20;99.90;;;;;;5113624;28;20058;-68
2022/01/04 12:49:12;;;;;;;3.80;0.75;;;6.40;99.90;;;;;;5132229;28;20051;-68
2022/01/04 12:51:44;;;;;;;1.85;0.30;;;6.20;99.90;;;;;;5096327;28;20481;-70
2022/01/04 12:54:40;;;;;;;3.25;0.43;;;6.20;99.90;;;;;;5114092;28;20054;-68
2022/01/04 12:57:08;;;;;;;5.63;0.50;;;6.50;99.90;;;;;;5111248;28;20051;-69
2022/01/04 12:59:37;;;;;;;4.25;1.13;;;6.30;99.90;;;;;;5113396;28;20095;-71
2022/01/04 13:02:27;;;;;;;3.00;0.60;;;6.40;99.90;;;;;;5113738;28;20046;-73
2022/01/04 13:04:57;;;;;;;2.53;0.40;;;6.40;99.90;;;;;;5096417;28;20047;-69
2022/01/04 13:07:28;;;;;;;2.20;0.50;;;6.40;99.90;;;;;;5131533;28;20483;-68